createdAt,value
2022-11-12T00:01:04.780Z,103140.16
2022-11-12T00:03:32.401Z,103140.53
2022-11-12T00:06:00.040Z,103134.88
2022-11-12T00:08:29.502Z,103136.25
2022-11-12T00:10:57.399Z,103136.25
2022-11-12T00:13:25.101Z,103130.41
2022-11-12T00:15:52.721Z,103129.78
2022-11-12T00:18:20.403Z,103135.84
2022-11-12T00:20:48.024Z,103128.97
2022-11-12T00:23:15.662Z,103134.22
2022-11-12T00:25:44.609Z,103137.25
2022-11-12T00:28:12.352Z,103134.00
2022-11-12T00:30:41.442Z,103142.88
2022-11-12T00:33:09.194Z,103129.16
2022-11-12T00:35:37.752Z,103139.66
2022-11-12T00:38:05.449Z,103135.78
2022-11-12T00:40:33.136Z,103144.03
2022-11-12T00:43:02.198Z,103145.41
2022-11-12T00:45:29.821Z,103148.22
2022-11-12T00:47:58.158Z,103141.34
2022-11-12T00:50:26.589Z,103140.72
2022-11-12T00:52:55.001Z,103144.13
2022-11-12T00:55:22.856Z,103139.47
2022-11-12T00:57:50.471Z,103146.50
2022-11-12T01:00:22.495Z,103138.84
2022-11-12T01:02:51.280Z,103134.78
2022-11-12T01:05:20.126Z,103133.53
2022-11-12T01:07:53.124Z,103134.72
2022-11-12T01:10:23.438Z,103125.19
2022-11-12T01:12:51.112Z,103126.38
2022-11-12T01:15:20.189Z,103129.44
2022-11-12T01:17:47.854Z,103118.56
2022-11-12T01:20:15.501Z,103120.38
2022-11-12T01:22:43.186Z,103130.19
2022-11-12T01:25:10.841Z,103129.91
2022-11-12T01:27:38.501Z,103129.41
2022-11-12T01:30:07.287Z,103127.72
2022-11-12T01:32:39.111Z,103120.84
2022-11-12T01:35:07.731Z,103123.19
2022-11-12T01:37:35.358Z,103124.38
2022-11-12T01:40:03.020Z,103131.25
2022-11-12T01:42:31.464Z,103135.31
2022-11-12T01:44:59.373Z,103125.25
2022-11-12T01:47:30.291Z,103121.44
2022-11-12T01:50:02.294Z,103116.22
2022-11-12T01:52:33.141Z,103122.63
2022-11-12T01:55:06.017Z,103129.88
2022-11-12T01:57:38.318Z,103121.19
2022-11-12T02:00:10.744Z,103114.78
2022-11-12T02:02:39.614Z,103121.63
2022-11-12T02:05:11.712Z,103118.00
2022-11-12T02:07:41.883Z,103128.13
2022-11-12T02:10:10.893Z,103123.69
2022-11-12T02:12:53.078Z,103120.69
2022-11-12T02:15:20.785Z,103118.88
2022-11-12T02:17:48.422Z,103118.25
2022-11-12T02:20:17.475Z,103107.94
2022-11-12T02:22:46.636Z,103108.34
2022-11-12T02:25:17.827Z,103109.13
2022-11-12T02:27:46.088Z,103105.09
2022-11-12T02:30:14.007Z,103105.09
2022-11-12T02:32:41.780Z,103101.03
2022-11-12T02:35:09.604Z,103104.66
2022-11-12T02:37:37.280Z,103100.59
2022-11-12T02:40:08.583Z,103103.41
2022-11-12T02:42:36.175Z,103102.78
2022-11-12T02:45:04.094Z,103097.56
2022-11-12T02:47:31.713Z,103100.16
2022-11-12T02:49:59.336Z,103089.69
2022-11-12T02:52:27.524Z,103092.31
2022-11-12T02:54:55.162Z,103094.94
2022-11-12T02:57:24.165Z,103099.97
2022-11-12T02:59:51.917Z,103104.22
2022-11-12T03:02:19.625Z,103104.03
2022-11-12T03:04:49.571Z,103097.16
2022-11-12T03:07:17.627Z,103092.91
2022-11-12T03:09:45.359Z,103106.66
2022-11-12T03:12:13.124Z,103106.03
2022-11-12T03:14:42.110Z,103104.75
2022-11-12T03:17:09.750Z,103096.69
2022-11-12T03:19:37.365Z,103097.41
2022-11-12T03:22:06.173Z,103096.53
2022-11-12T03:24:33.792Z,103094.69
2022-11-12T03:27:01.520Z,103097.47
2022-11-12T03:29:29.149Z,103094.22
2022-11-12T03:31:58.132Z,103096.22
2022-11-12T03:34:25.730Z,103090.34
2022-11-12T03:36:53.394Z,103098.41
2022-11-12T03:39:21.016Z,103101.03
2022-11-12T03:41:48.692Z,103090.34
2022-11-12T03:44:16.305Z,103092.41
2022-11-12T03:46:44.530Z,103086.00
2022-11-12T03:49:13.588Z,103090.25
2022-11-12T03:51:41.226Z,103095.84
2022-11-12T03:54:08.900Z,103085.75
2022-11-12T03:56:36.636Z,103084.91
2022-11-12T03:59:04.583Z,103084.03
2022-11-12T04:01:32.432Z,103100.16
2022-11-12T04:04:00.203Z,103088.84
2022-11-12T04:06:46.578Z,103096.91
2022-11-12T04:09:14.456Z,103095.28
2022-11-12T04:11:42.071Z,103086.78
2022-11-12T04:14:08.733Z,103094.28
2022-11-12T04:16:53.936Z,103097.91
2022-11-12T04:19:35.457Z,103107.41
2022-11-12T04:22:07.566Z,103100.53
2022-11-12T04:24:55.131Z,103100.06
2022-11-12T04:27:25.433Z,103101.28
2022-11-12T04:30:11.707Z,103103.25
2022-11-12T04:32:41.496Z,103101.00
2022-11-12T04:35:09.921Z,103099.56
2022-11-12T04:37:45.433Z,103099.38
2022-11-12T04:40:32.914Z,103090.16
2022-11-12T04:43:18.228Z,103091.59
2022-11-12T04:45:48.511Z,103096.03
2022-11-12T04:48:16.463Z,103097.63
2022-11-12T04:50:45.680Z,103094.03
2022-11-12T04:53:15.090Z,103092.19
2022-11-12T04:55:42.856Z,103087.78
2022-11-12T04:58:10.496Z,103095.28
2022-11-12T05:00:38.134Z,103090.84
2022-11-12T05:03:05.772Z,103090.66
2022-11-12T05:05:34.245Z,103086.44
2022-11-12T05:08:02.441Z,103076.13
2022-11-12T05:10:31.653Z,103071.69
2022-11-12T05:12:59.651Z,103079.56
2022-11-12T05:15:27.445Z,103067.84
2022-11-12T05:17:55.127Z,103062.59
2022-11-12T05:20:22.865Z,103067.84
2022-11-12T05:23:04.887Z,103062.59
2022-11-12T05:25:35.308Z,103059.97
2022-11-12T05:28:02.954Z,103063.78
2022-11-12T05:30:30.629Z,103061.97
2022-11-12T05:32:58.254Z,103055.09
2022-11-12T05:35:25.944Z,103067.75
2022-11-12T05:37:53.593Z,103059.25
2022-11-12T05:40:21.260Z,103060.44
2022-11-12T05:42:50.268Z,103061.63
2022-11-12T05:45:17.878Z,103057.97
2022-11-12T05:47:45.488Z,103063.56
2022-11-12T05:50:13.130Z,103061.84
2022-11-12T05:52:40.732Z,103060.97
2022-11-12T05:55:09.056Z,103063.31
2022-11-12T05:57:36.717Z,103064.06
2022-11-12T06:00:06.937Z,103071.09
2022-11-12T06:02:34.585Z,103065.69
2022-11-12T06:05:02.437Z,103064.88
2022-11-12T06:07:30.057Z,103060.63
2022-11-12T06:09:57.689Z,103062.41
2022-11-12T06:12:25.341Z,103070.28
2022-11-12T06:14:52.972Z,103068.84
2022-11-12T06:17:22.748Z,103071.22
2022-11-12T06:19:50.391Z,103063.09
2022-11-12T06:22:18.005Z,103066.25
2022-11-12T06:24:45.637Z,103067.44
2022-11-12T06:27:13.264Z,103073.00
2022-11-12T06:29:40.888Z,103073.84
2022-11-12T06:32:08.484Z,103076.44
2022-11-12T06:34:37.775Z,103079.25
2022-11-12T06:37:05.362Z,103083.19
2022-11-12T06:39:33.053Z,103078.97
2022-11-12T06:42:01.994Z,103075.75
2022-11-12T06:44:29.809Z,103072.03
2022-11-12T06:46:57.433Z,103073.38
2022-11-12T06:49:25.100Z,103070.94
2022-11-12T06:51:54.138Z,103080.75
2022-11-12T06:54:21.868Z,103076.69
2022-11-12T06:56:49.502Z,103078.00
2022-11-12T06:59:17.650Z,103082.22
2022-11-12T07:01:45.610Z,103084.63
2022-11-12T07:04:13.261Z,103087.25
2022-11-12T07:06:40.973Z,103089.88
2022-11-12T07:09:10.104Z,103086.09
2022-11-12T07:11:37.789Z,103087.53
2022-11-12T07:14:06.741Z,103095.03
2022-11-12T07:16:34.654Z,103091.44
2022-11-12T07:19:02.475Z,103098.13
2022-11-12T07:21:30.113Z,103111.00
2022-11-12T07:23:57.780Z,103110.00
2022-11-12T07:26:28.450Z,103107.22
2022-11-12T07:28:56.784Z,103120.75
2022-11-12T07:31:25.814Z,103119.41
2022-11-12T07:33:53.789Z,103118.06
2022-11-12T07:36:23.048Z,103113.25
2022-11-12T07:38:53.571Z,103119.59
2022-11-12T07:41:23.159Z,103110.34
2022-11-12T07:43:53.593Z,103116.06
2022-11-12T07:46:23.907Z,103109.66
2022-11-12T07:48:51.764Z,103112.91
2022-11-12T07:51:21.398Z,103109.25
2022-11-12T07:53:52.680Z,103112.34
2022-11-12T07:56:25.827Z,103104.91
2022-11-12T07:58:54.790Z,103110.63
2022-11-12T08:01:26.740Z,103110.06
2022-11-12T08:03:54.467Z,103119.19
2022-11-12T08:06:22.174Z,103117.84
2022-11-12T08:08:53.096Z,103125.75
2022-11-12T08:11:22.566Z,103129.44
2022-11-12T08:13:50.485Z,103127.91
2022-11-12T08:16:19.632Z,103124.38
2022-11-12T08:18:47.436Z,103128.50
2022-11-12T08:21:16.898Z,103131.63
2022-11-12T08:23:44.800Z,103128.31
2022-11-12T08:26:14.363Z,103130.88
2022-11-12T08:28:42.285Z,103130.00
2022-11-12T08:31:12.724Z,103131.34
2022-11-12T08:33:42.240Z,103129.06
2022-11-12T08:36:12.471Z,103133.63
2022-11-12T08:38:40.569Z,103143.25
2022-11-12T08:41:10.442Z,103145.16
2022-11-12T08:43:38.500Z,103140.38
2022-11-12T08:46:06.497Z,103139.03
2022-11-12T08:48:35.117Z,103139.13
2022-11-12T08:51:05.068Z,103137.16
2022-11-12T08:53:32.935Z,103137.59
2022-11-12T08:56:01.375Z,103137.38
2022-11-12T08:58:29.649Z,103136.75
2022-11-12T09:00:58.686Z,103136.75
2022-11-12T09:03:27.498Z,103127.38
2022-11-12T09:05:55.439Z,103138.66
2022-11-12T09:08:26.623Z,103131.06
2022-11-12T09:10:54.721Z,103133.59
2022-11-12T09:13:22.494Z,103131.44
2022-11-12T09:15:50.218Z,103139.81
2022-11-12T09:18:19.279Z,103131.56
2022-11-12T09:20:47.176Z,103137.50
2022-11-12T09:23:17.666Z,103125.53
2022-11-12T09:25:46.685Z,103135.94
2022-11-12T09:28:16.382Z,103138.81
2022-11-12T09:30:46.587Z,103144.31
2022-11-12T09:33:14.760Z,103143.03
2022-11-12T09:35:42.646Z,103145.94
2022-11-12T09:38:10.352Z,103137.13
2022-11-12T09:41:22.293Z,103134.44
2022-11-12T09:43:53.728Z,103142.66
2022-11-12T09:46:29.072Z,103136.47
2022-11-12T09:49:03.513Z,103140.38
2022-11-12T09:51:34.716Z,103138.75
2022-11-12T09:54:13.578Z,103145.88
2022-11-12T09:56:41.371Z,103147.47
2022-11-12T09:59:13.891Z,103141.88
2022-11-12T10:01:58.873Z,103146.91
2022-11-12T10:05:20.044Z,103144.41
2022-11-12T10:07:59.544Z,103155.19
2022-11-12T10:10:39.260Z,103151.09
2022-11-12T10:13:25.855Z,103149.81
2022-11-12T10:16:26.296Z,103149.31
2022-11-12T10:19:14.808Z,103150.44
2022-11-12T10:21:51.545Z,103143.69
2022-11-12T10:24:22.694Z,103155.19
2022-11-12T10:26:51.268Z,103147.13
2022-11-12T10:29:29.360Z,103144.66
2022-11-12T10:31:58.392Z,103141.78
2022-11-12T10:34:26.446Z,103148.19
2022-11-12T10:36:57.409Z,103144.28
2022-11-12T10:39:36.448Z,103135.00
2022-11-12T10:42:07.108Z,103137.50
2022-11-12T10:44:34.805Z,103130.19
2022-11-12T10:47:24.220Z,103127.66
2022-11-12T10:50:05.231Z,103126.91
2022-11-12T10:52:33.395Z,103118.09
2022-11-12T10:55:07.933Z,103122.38
2022-11-12T10:57:35.607Z,103119.91
2022-11-12T11:00:09.255Z,103120.06
2022-11-12T11:02:38.288Z,103124.47
2022-11-12T11:05:30.192Z,103116.06
2022-11-12T11:07:58.121Z,103121.38
2022-11-12T11:10:28.522Z,103111.13
2022-11-12T11:13:20.939Z,103109.88
2022-11-12T11:16:00.936Z,103111.81
2022-11-12T11:18:32.036Z,103112.47
2022-11-12T11:21:08.895Z,103108.28
2022-11-12T11:23:43.469Z,103107.38
2022-11-12T11:26:28.368Z,103105.72
2022-11-12T11:29:07.872Z,103100.31
2022-11-12T11:31:45.571Z,103104.00
2022-11-12T11:34:28.310Z,103099.16
2022-11-12T11:37:06.580Z,103104.13
2022-11-12T11:39:43.089Z,103091.16
2022-11-12T11:42:24.671Z,103092.38
2022-11-12T11:45:01.031Z,103088.19
2022-11-12T11:47:59.414Z,103088.16
2022-11-12T11:50:29.411Z,103094.50
2022-11-12T11:53:09.449Z,103089.53
2022-11-12T11:55:45.962Z,103083.34
2022-11-12T11:58:27.953Z,103083.06
2022-11-12T12:01:04.493Z,103088.75
2022-11-12T12:03:42.510Z,103077.34
2022-11-12T12:06:23.292Z,103084.16
2022-11-12T12:09:02.588Z,103084.22
2022-11-12T12:11:36.267Z,103075.41
2022-11-12T12:14:17.467Z,103069.81
2022-11-12T12:16:52.954Z,103070.03
2022-11-12T12:19:36.102Z,103066.72
2022-11-12T12:22:10.999Z,103063.19
2022-11-12T12:24:47.760Z,103059.66
2022-11-12T12:27:20.290Z,103050.16
2022-11-12T12:29:52.014Z,103050.78
2022-11-12T12:32:25.727Z,103047.94
2022-11-12T12:34:58.599Z,103043.03
2022-11-12T12:37:37.397Z,103040.56
2022-11-12T12:40:15.153Z,103033.91
2022-11-12T12:42:48.262Z,103033.66
2022-11-12T12:45:37.378Z,103032.03
2022-11-12T12:48:08.266Z,103024.44
2022-11-12T12:50:39.283Z,103023.69
2022-11-12T12:53:18.906Z,103020.38
2022-11-12T12:55:48.651Z,103015.41
2022-11-12T12:58:18.545Z,103004.19
2022-11-12T13:00:52.023Z,103010.84
2022-11-12T13:03:50.609Z,103002.44
2022-11-12T13:06:25.941Z,102997.00
2022-11-12T13:08:59.201Z,102994.13
2022-11-12T13:12:09.181Z,102991.31
2022-11-12T13:15:10.952Z,102993.59
2022-11-12T13:17:52.642Z,102991.31
2022-11-12T13:20:39.381Z,102993.59
2022-11-12T13:23:12.555Z,102989.09
2022-11-12T13:25:41.621Z,102979.16
2022-11-12T13:28:14.238Z,102996.31
2022-11-12T13:31:00.143Z,102980.00
2022-11-12T13:33:32.340Z,102982.97
2022-11-12T13:36:24.092Z,102975.25
2022-11-12T13:38:55.456Z,102975.78
2022-11-12T13:41:45.813Z,102975.06
2022-11-12T13:44:17.855Z,102971.81
2022-11-12T13:46:46.665Z,102969.69
2022-11-12T13:49:16.617Z,102975.00
2022-11-12T13:51:46.508Z,102976.00
2022-11-12T13:54:35.237Z,102970.91
2022-11-12T13:57:28.716Z,102963.53
2022-11-12T14:00:10.912Z,102958.41
2022-11-12T14:02:41.688Z,102963.53
2022-11-12T14:05:16.914Z,102963.75
2022-11-12T14:07:55.143Z,102967.25
2022-11-12T14:10:36.292Z,102961.25
2022-11-12T14:13:20.875Z,102952.09
2022-11-12T14:16:03.421Z,102950.53
2022-11-12T14:18:43.374Z,102942.75
2022-11-12T14:21:16.469Z,102947.41
2022-11-12T14:23:46.711Z,102950.91
2022-11-12T14:26:16.017Z,102948.59
2022-11-12T14:28:44.988Z,102938.50
2022-11-12T14:31:14.736Z,102946.16
2022-11-12T14:33:42.390Z,102940.78
2022-11-12T14:36:14.686Z,102928.63
2022-11-12T14:38:46.990Z,102927.16
2022-11-12T14:41:21.512Z,102916.06
2022-11-12T14:44:10.905Z,102915.84
2022-11-12T14:46:45.097Z,102913.09
2022-11-12T14:49:26.145Z,102918.47
2022-11-12T14:52:02.888Z,102908.56
2022-11-12T14:54:33.332Z,102917.56
2022-11-12T14:57:03.788Z,102916.84
2022-11-12T14:59:33.832Z,102918.56
2022-11-12T15:05:01.262Z,102912.63
2022-11-12T15:07:32.236Z,102914.59
2022-11-12T15:10:00.672Z,102916.94
2022-11-12T15:12:32.523Z,102908.47
2022-11-12T15:15:20.954Z,102923.91
2022-11-12T15:17:48.754Z,102916.03
2022-11-12T15:20:18.845Z,102903.88
2022-11-12T15:22:51.721Z,102906.25
2022-11-12T15:25:22.899Z,102910.97
2022-11-12T15:27:51.028Z,102909.63
2022-11-12T15:30:24.218Z,102905.28
2022-11-12T15:32:52.501Z,102902.28
2022-11-12T15:35:38.005Z,102903.88
2022-11-12T15:38:08.915Z,102906.53
2022-11-12T15:40:43.987Z,102890.81
2022-11-12T15:43:15.442Z,102902.56
2022-11-12T15:45:44.408Z,102896.66
2022-11-12T15:48:13.297Z,102898.47
2022-11-12T15:50:40.906Z,102902.31
2022-11-12T15:53:08.425Z,102903.28
2022-11-12T15:55:38.232Z,102895.22
2022-11-12T15:58:07.398Z,102903.34
2022-11-12T16:00:37.791Z,102891.91
2022-11-12T16:03:14.396Z,102885.66
2022-11-12T16:05:42.308Z,102886.41
2022-11-12T16:08:10.252Z,102880.19
2022-11-12T16:10:39.059Z,102881.13
2022-11-12T16:13:08.120Z,102884.94
2022-11-12T16:15:35.809Z,102889.56
2022-11-12T16:18:05.892Z,102891.81
2022-11-12T16:20:36.618Z,102891.34
2022-11-12T16:23:04.828Z,102891.34
2022-11-12T16:25:34.532Z,102891.34
2022-11-12T16:28:02.897Z,102887.63
2022-11-12T16:30:33.392Z,102886.63
2022-11-12T16:33:02.265Z,102887.03
2022-11-12T16:35:33.977Z,102878.84
2022-11-12T16:38:03.032Z,102900.59
2022-11-12T16:40:31.987Z,102896.13
2022-11-12T16:42:59.617Z,102903.34
2022-11-12T16:45:35.558Z,102902.00
2022-11-12T16:48:11.934Z,102893.25
2022-11-12T16:50:39.614Z,102894.34
2022-11-12T16:53:08.426Z,102898.94
2022-11-12T16:55:36.138Z,102894.94
2022-11-12T16:58:06.398Z,102892.84
2022-11-12T17:00:34.043Z,102891.25
2022-11-12T17:03:01.703Z,102894.44
2022-11-12T17:05:29.319Z,102892.06
2022-11-12T17:07:58.389Z,102903.88
2022-11-12T17:10:27.423Z,102887.06
2022-11-12T17:12:55.093Z,102886.78
2022-11-12T17:15:22.781Z,102887.03
2022-11-12T17:17:50.397Z,102889.47
2022-11-12T17:20:18.055Z,102885.72
2022-11-12T17:22:45.701Z,102888.41
2022-11-12T17:25:13.412Z,102887.31
2022-11-12T17:27:42.407Z,102888.13
2022-11-12T17:30:11.681Z,102889.72
2022-11-12T17:32:39.297Z,102890.81
2022-11-12T17:35:07.985Z,102886.00
2022-11-12T17:37:35.624Z,102891.59
2022-11-12T17:40:03.627Z,102891.03
2022-11-12T17:42:31.244Z,102886.47
2022-11-12T17:45:00.245Z,102886.47
2022-11-12T17:47:28.921Z,102885.66
2022-11-12T17:49:56.536Z,102879.72
2022-11-12T17:52:24.170Z,102881.56
2022-11-12T17:54:51.829Z,102871.03
2022-11-12T17:57:19.511Z,102878.13
2022-11-12T17:59:47.173Z,102881.81
2022-11-12T18:02:16.138Z,102883.91
2022-11-12T18:04:43.764Z,102878.06
2022-11-12T18:07:11.454Z,102887.91
2022-11-12T18:09:39.170Z,102885.72
2022-11-12T18:12:07.033Z,102888.84
2022-11-12T18:14:34.502Z,102880.75
2022-11-12T18:17:02.396Z,102885.97
2022-11-12T18:19:31.605Z,102884.84
2022-11-12T18:21:59.851Z,102880.28
2022-11-12T18:24:27.558Z,102883.69
2022-11-12T18:26:55.270Z,102893.25
2022-11-12T18:29:22.946Z,102889.78
2022-11-12T18:31:50.601Z,102883.13
2022-11-12T18:34:18.256Z,102872.66
2022-11-12T18:36:47.285Z,102884.53
2022-11-12T18:39:15.355Z,102880.72
2022-11-12T18:41:43.043Z,102885.97
2022-11-12T18:44:10.783Z,102888.03
2022-11-12T18:46:38.503Z,102892.13
2022-11-12T18:49:06.371Z,102887.50
2022-11-12T18:51:33.853Z,102892.94
2022-11-12T18:54:02.820Z,102887.84
2022-11-12T18:56:30.477Z,102888.59
2022-11-12T18:58:58.119Z,102884.16
2022-11-12T19:01:26.160Z,102875.94
2022-11-12T19:03:56.406Z,102880.22
2022-11-12T19:06:24.777Z,102869.47
2022-11-12T19:08:58.505Z,102878.63
2022-11-12T19:11:27.744Z,102874.75
2022-11-12T19:13:56.192Z,102876.13
2022-11-12T19:16:24.464Z,102870.72
2022-11-12T19:18:53.011Z,102865.06
2022-11-12T19:21:22.562Z,102866.91
2022-11-12T19:23:53.972Z,102876.41
2022-11-12T19:26:23.259Z,102887.69
2022-11-12T19:28:52.731Z,102882.84
2022-11-12T19:31:22.064Z,102880.16
2022-11-12T19:33:50.055Z,102879.41
2022-11-12T19:36:18.503Z,102878.59
2022-11-12T19:38:46.161Z,102870.25
2022-11-12T19:41:19.391Z,102866.69
2022-11-12T19:43:48.119Z,102870.34
2022-11-12T19:46:17.027Z,102875.00
2022-11-12T19:48:45.037Z,102879.41
2022-11-12T19:51:13.223Z,102873.19
2022-11-12T19:53:44.363Z,102874.81
2022-11-12T19:56:13.730Z,102865.25
2022-11-12T19:58:45.027Z,102864.13
2022-11-12T20:01:14.856Z,102865.78
2022-11-12T20:03:44.150Z,102860.81
2022-11-12T20:06:13.898Z,102853.25
2022-11-12T20:08:41.871Z,102850.16
2022-11-12T20:11:09.357Z,102849.59
2022-11-12T20:13:37.034Z,102847.06
2022-11-12T20:16:09.014Z,102845.69
2022-11-12T20:18:36.714Z,102850.97
2022-11-12T20:21:06.358Z,102848.13
2022-11-12T20:23:34.624Z,102846.59
2022-11-12T20:26:03.925Z,102855.03
2022-11-12T20:28:33.930Z,102844.38
2022-11-12T20:31:03.624Z,102848.44
2022-11-12T20:33:31.321Z,102839.94
2022-11-12T20:36:06.904Z,102834.16
2022-11-12T20:38:37.481Z,102826.19
2022-11-12T20:41:05.643Z,102828.84
2022-11-12T20:43:33.928Z,102816.88
2022-11-12T20:46:01.910Z,102833.94
2022-11-12T20:48:30.313Z,102821.84
2022-11-12T20:51:23.356Z,102824.06
2022-11-12T20:53:58.906Z,102822.31
2022-11-12T20:56:28.150Z,102819.44
2022-11-12T20:58:56.272Z,102818.00
2022-11-12T21:01:25.884Z,102822.03
2022-11-12T21:03:53.675Z,102823.50
2022-11-12T21:06:24.648Z,102813.84
2022-11-12T21:08:52.554Z,102808.78
2022-11-12T21:11:22.286Z,102812.22
2022-11-12T21:13:50.175Z,102817.88
2022-11-12T21:16:17.831Z,102814.72
2022-11-12T21:18:45.636Z,102815.78
2022-11-12T21:21:15.054Z,102814.97
2022-11-12T21:23:45.259Z,102815.22
2022-11-12T21:26:14.628Z,102813.00
2022-11-12T21:28:43.812Z,102809.81
2022-11-12T21:31:13.474Z,102799.22
2022-11-12T21:33:41.470Z,102808.53
2022-11-12T21:36:15.842Z,102808.53
2022-11-12T21:38:45.160Z,102802.06
2022-11-12T21:41:14.549Z,102793.59
2022-11-12T21:43:44.604Z,102794.72
2022-11-12T21:46:14.952Z,102785.88
2022-11-12T21:48:43.686Z,102792.03
2022-11-12T21:51:12.572Z,102798.38
2022-11-12T21:53:41.105Z,102797.31
2022-11-12T21:56:12.923Z,102808.94
2022-11-12T21:58:41.076Z,102806.75
2022-11-12T22:01:09.268Z,102814.53
2022-11-12T22:03:36.968Z,102805.09
2022-11-12T22:06:05.537Z,102800.28
2022-11-12T22:08:33.599Z,102808.41
2022-11-12T22:11:03.285Z,102796.69
2022-11-12T22:13:32.824Z,102796.13
2022-11-12T22:16:04.684Z,102807.47
2022-11-12T22:18:34.140Z,102801.97
2022-11-12T22:21:03.699Z,102807.69
2022-11-12T22:23:32.911Z,102803.91
2022-11-12T22:26:01.013Z,102801.69
2022-11-12T22:28:28.842Z,102800.69
2022-11-12T22:31:05.021Z,102793.91
2022-11-12T22:33:32.670Z,102789.53
2022-11-12T22:36:02.394Z,102789.53
2022-11-12T22:38:34.568Z,102795.69
2022-11-12T22:41:03.757Z,102787.00
2022-11-12T22:43:32.620Z,102788.44
2022-11-12T22:46:06.304Z,102798.28
2022-11-12T22:48:34.107Z,102792.66
2022-11-12T22:51:02.794Z,102779.06
2022-11-12T22:53:30.779Z,102782.38
2022-11-12T22:56:02.830Z,102773.88
2022-11-12T22:58:31.016Z,102782.22
2022-11-12T23:00:58.798Z,102780.06
2022-11-12T23:03:27.835Z,102779.00
2022-11-12T23:05:59.416Z,102773.16
2022-11-12T23:08:27.531Z,102784.28
2022-11-12T23:10:55.634Z,102783.03
2022-11-12T23:13:25.969Z,102778.22
2022-11-12T23:15:53.784Z,102779.00
2022-11-12T23:18:21.413Z,102777.41
2022-11-12T23:20:50.696Z,102775.78
2022-11-12T23:23:18.561Z,102769.78
2022-11-12T23:25:46.272Z,102770.03
2022-11-12T23:28:13.965Z,102777.13
2022-11-12T23:30:41.571Z,102778.13
2022-11-12T23:33:09.927Z,102780.66
2022-11-12T23:35:37.572Z,102774.41
2022-11-12T23:38:06.583Z,102775.31
2022-11-12T23:40:34.246Z,102779.41
2022-11-12T23:43:01.911Z,102777.41
2022-11-12T23:45:29.545Z,102774.19
2022-11-12T23:47:57.828Z,102771.41
2022-11-12T23:50:25.486Z,102764.97
2022-11-12T23:52:53.105Z,102762.09
2022-11-12T23:55:22.083Z,102755.00
2022-11-12T23:57:49.833Z,102757.66
